^^
Datos históricos de la estación: Murcia-Puente Tocinos
Diario Informe para Diciembre 06, 2021 Unidades:  Ambas    Ingés   Métrico
Diario Semanal Mensual Anual
  Máxima: Mínima: Promedio:
Temperatura: 65.8 °F /  18.8 °C 51.3 °F /  10.7 °C 58.1 °F /  14.5 °C
Punto de rocio: 40.6 °F /  4.8 °C 34.3 °F /  1.3 °C 36.7 °F /  2.6 °C
Humedad: 65% 33% 46%
Velocidad viento: 14.5mph /  23.3km/h - 6.1mph /  9.8km/h
Racha viento: 25.6mph /  41.2km/h - -
Viento- - SO
Presión: 30.2 in /  1023.7 hPa 30.1 in /  1020.7 hPa -
Precipitación: 0 in /  0.0 mm    
 
 
Tabla de datos para Diciembre 06, 2021
Hora Temperatura Punto de rocio Presión Viento Velocidad viento Racha viento Humedad Intensidad lluvia(por hora) Nubes
00:04 53.8 °F /  12.1 °C 40.3 °F /  4.6 °C 30.2in /  1021.2hPa SE 2mph /  3.2km/h 5.4mph /  8.7km/h 60% 0in /  0.0mm
00:09 53.4 °F /  11.9 °C 40.5 °F /  4.7 °C 30.2in /  1021.3hPa SE 2.2mph /  3.6km/h 5.9mph /  9.5km/h 61.1% 0in /  0.0mm
00:14 53.1 °F /  11.7 °C 40.6 °F /  4.8 °C 30.2in /  1021.3hPa SSE 2.9mph /  4.7km/h 6.9mph /  11.1km/h 62.5% 0in /  0.0mm
00:19 52.9 °F /  11.6 °C 40.6 °F /  4.8 °C 30.2in /  1021.3hPa Sur 3.2mph /  5.2km/h 6.9mph /  11.1km/h 63% 0in /  0.0mm
00:24 52.7 °F /  11.5 °C 40.6 °F /  4.8 °C 30.2in /  1021.3hPa SSO 4.3mph /  6.9km/h 8.1mph /  13km/h 63.4% 0in /  0.0mm
00:29 52.5 °F /  11.4 °C 40.6 °F /  4.8 °C 30.2in /  1021.1hPa SSO 4.5mph /  7.3km/h 6.9mph /  11.1km/h 64% 0in /  0.0mm
00:34 52.5 °F /  11.4 °C 40.5 °F /  4.7 °C 30.2in /  1021.1hPa SO 5.2mph /  8.4km/h 9.2mph /  14.8km/h 63.6% 0in /  0.0mm
00:39 52.9 °F /  11.6 °C 40.5 °F /  4.7 °C 30.2in /  1021.1hPa OSO 5.5mph /  8.9km/h 11.8mph /  19km/h 62.8% 0in /  0.0mm
00:44 53.1 °F /  11.7 °C 40.3 °F /  4.6 °C 30.1in /  1020.8hPa SO 6.4mph /  10.3km/h 13.8mph /  22.2km/h 62% 0in /  0.0mm
00:49 53.1 °F /  11.7 °C 40.5 °F /  4.7 °C 30.1in /  1020.8hPa SO 6.8mph /  11km/h 12.7mph /  20.4km/h 62% 0in /  0.0mm
00:54 53.1 °F /  11.7 °C 40.5 °F /  4.7 °C 30.1in /  1020.8hPa OSO 8.1mph /  13km/h 12.7mph /  20.4km/h 62% 0in /  0.0mm
00:59 53.1 °F /  11.7 °C 40.1 °F /  4.5 °C 30.1in /  1020.7hPa ONO 7.3mph /  11.7km/h 10.4mph /  16.7km/h 61.1% 0in /  0.0mm
01:04 53.2 °F /  11.8 °C 39.9 °F /  4.4 °C 30.1in /  1020.7hPa North 5.4mph /  8.7km/h 8.1mph /  13km/h 60.5% 0in /  0.0mm
01:09 53.2 °F /  11.8 °C 39.9 °F /  4.4 °C 30.2in /  1021.1hPa NE 4.8mph /  7.7km/h 6.9mph /  11.1km/h 60.2% 0in /  0.0mm
01:14 52.9 °F /  11.6 °C 39.9 °F /  4.4 °C 30.2in /  1021.1hPa ESE 3.1mph /  5km/h 5.2mph /  8.4km/h 61.5% 0in /  0.0mm
01:19 52 °F /  11.1 °C 39.9 °F /  4.4 °C 30.2in /  1021.1hPa ESE 3.1mph /  5km/h 4.6mph /  7.4km/h 63.5% 0in /  0.0mm
01:24 51.4 °F /  10.8 °C 40.1 °F /  4.5 °C 30.2in /  1021.1hPa SSE 3.1mph /  5km/h 6.2mph /  10km/h 65% 0in /  0.0mm
01:29 51.4 °F /  10.8 °C 39.9 °F /  4.4 °C 30.2in /  1020.9hPa Oeste 3.2mph /  5.2km/h 8.5mph /  13.7km/h 64.6% 0in /  0.0mm
01:34 52 °F /  11.1 °C 39.6 °F /  4.2 °C 30.2in /  1020.9hPa OSO 3.6mph /  5.8km/h 9.2mph /  14.8km/h 62.7% 0in /  0.0mm
01:39 52.3 °F /  11.3 °C 39.4 °F /  4.1 °C 30.2in /  1020.9hPa Oeste 4.1mph /  6.6km/h 10.4mph /  16.7km/h 61.5% 0in /  0.0mm
01:44 52.7 °F /  11.5 °C 39.4 °F /  4.1 °C 30.1in /  1020.8hPa ONO 5.4mph /  8.7km/h 11.5mph /  18.5km/h 60.1% 0in /  0.0mm
01:49 53.2 °F /  11.8 °C 39.2 °F /  4 °C 30.1in /  1020.8hPa Oeste 5.2mph /  8.4km/h 8.1mph /  13km/h 59% 0in /  0.0mm
01:54 53.2 °F /  11.8 °C 39 °F /  3.9 °C 30.2in /  1021.0hPa SSO 4.7mph /  7.6km/h 3.5mph /  5.6km/h 58.6% 0in /  0.0mm
01:59 53.2 °F /  11.8 °C 39.2 °F /  4 °C 30.2in /  1021.0hPa SSO 4mph /  6.4km/h 5.9mph /  9.5km/h 58.7% 0in /  0.0mm
02:04 53.1 °F /  11.7 °C 39.2 °F /  4 °C 30.2in /  1021.0hPa Sur 2.4mph /  3.9km/h 6.2mph /  10km/h 59.5% 0in /  0.0mm
02:09 52.5 °F /  11.4 °C 39.2 °F /  4 °C 30.2in /  1021.0hPa SSE 2.7mph /  4.4km/h 5.4mph /  8.7km/h 60.4% 0in /  0.0mm
02:14 52.2 °F /  11.2 °C 39.4 °F /  4.1 °C 30.2in /  1021.0hPa Sur 3.6mph /  5.8km/h 5.9mph /  9.5km/h 61.4% 0in /  0.0mm
02:19 52 °F /  11.1 °C 39.4 °F /  4.1 °C 30.2in /  1021.0hPa Sur 3.7mph /  6km/h 7.4mph /  11.9km/h 62% 0in /  0.0mm
02:24 52.2 °F /  11.2 °C 39.4 °F /  4.1 °C 30.2in /  1021.2hPa Sur 4mph /  6.4km/h 9.2mph /  14.8km/h 61.6% 0in /  0.0mm
02:29 52.7 °F /  11.5 °C 39.4 °F /  4.1 °C 30.2in /  1021.2hPa Sur 4.3mph /  7km/h 8.1mph /  13km/h 60.1% 0in /  0.0mm
02:34 52.7 °F /  11.5 °C 39.2 °F /  4 °C 30.2in /  1021.2hPa Sur 5.2mph /  8.4km/h 8.1mph /  13km/h 60% 0in /  0.0mm
02:39 52.5 °F /  11.4 °C 39 °F /  3.9 °C 30.2in /  1021.3hPa SSE 5.4mph /  8.7km/h 10.7mph /  17.2km/h 60% 0in /  0.0mm
02:44 52.7 °F /  11.5 °C 39.2 °F /  4 °C 30.2in /  1021.3hPa Sur 5.9mph /  9.5km/h 10mph /  16.1km/h 60% 0in /  0.0mm
02:49 52.9 °F /  11.6 °C 39 °F /  3.9 °C 30.2in /  1021.3hPa SSO 5.8mph /  9.3km/h 11.8mph /  19km/h 59.4% 0in /  0.0mm
02:54 53.1 °F /  11.7 °C 39 °F /  3.9 °C 30.2in /  1021.3hPa OSO 5.4mph /  8.7km/h 5.8mph /  9.3km/h 58.7% 0in /  0.0mm
02:59 53.1 °F /  11.7 °C 38.8 °F /  3.8 °C 30.2in /  1021.3hPa Sur 4.7mph /  7.6km/h 5.2mph /  8.4km/h 58.7% 0in /  0.0mm
03:04 52.9 °F /  11.6 °C 38.8 °F /  3.8 °C 30.2in /  1021.3hPa ONO 3.1mph /  5km/h 6.9mph /  11.1km/h 58.8% 0in /  0.0mm
03:09 53.1 °F /  11.7 °C 38.7 °F /  3.7 °C 30.2in /  1021.3hPa SSO 3mph /  4.9km/h 5.8mph /  9.3km/h 58% 0in /  0.0mm
03:14 53.1 °F /  11.7 °C 38.7 °F /  3.7 °C 30.2in /  1021.2hPa NE 2.9mph /  4.7km/h 4.6mph /  7.4km/h 58% 0in /  0.0mm
03:19 53.1 °F /  11.7 °C 38.5 °F /  3.6 °C 30.2in /  1021.2hPa Sur 2.7mph /  4.3km/h 4.7mph /  7.6km/h 57.6% 0in /  0.0mm
03:24 52.9 °F /  11.6 °C 38.5 °F /  3.6 °C 30.2in /  1021.2hPa ENE 2mph /  3.2km/h 5.9mph /  9.5km/h 58% 0in /  0.0mm
03:29 52.3 °F /  11.3 °C 38.3 °F /  3.5 °C 30.2in /  1021.2hPa Este 2.4mph /  3.9km/h 5.9mph /  9.5km/h 58.8% 0in /  0.0mm
03:34 51.8 °F /  11 °C 38.3 °F /  3.5 °C 30.2in /  1021.2hPa Este 3.6mph /  5.8km/h 5.8mph /  9.3km/h 59.8% 0in /  0.0mm
03:39 51.4 °F /  10.8 °C 38.3 °F /  3.5 °C 30.2in /  1021.3hPa Este 3.5mph /  5.6km/h 4.7mph /  7.6km/h 60.8% 0in /  0.0mm
03:44 51.3 °F /  10.7 °C 38.3 °F /  3.5 °C 30.2in /  1021.3hPa SE 3.1mph /  5km/h 5.2mph /  8.4km/h 61% 0in /  0.0mm
03:49 51.6 °F /  10.9 °C 38.3 °F /  3.5 °C 30.2in /  1021.3hPa SSE 3.2mph /  5.2km/h 5.2mph /  8.4km/h 60.4% 0in /  0.0mm
03:54 52.3 °F /  11.3 °C 38.3 °F /  3.5 °C 30.2in /  1021.5hPa SE 3.6mph /  5.8km/h 5.9mph /  9.5km/h 58.5% 0in /  0.0mm
03:59 53.1 °F /  11.7 °C 38.3 °F /  3.5 °C 30.2in /  1021.5hPa ESE 3.8mph /  6.1km/h 7.4mph /  11.9km/h 57% 0in /  0.0mm
04:04 53.2 °F /  11.8 °C 37.9 °F /  3.3 °C 30.2in /  1021.5hPa ESE 4.3mph /  6.9km/h 8.5mph /  13.7km/h 56.2% 0in /  0.0mm
04:09 53.4 °F /  11.9 °C 37.8 °F /  3.2 °C 30.2in /  1021.5hPa ESE 4.4mph /  7.1km/h 6.9mph /  11.1km/h 55.3% 0in /  0.0mm
04:14 53.8 °F /  12.1 °C 37.6 °F /  3.1 °C 30.2in /  1021.3hPa ESE 4.7mph /  7.6km/h 5.8mph /  9.3km/h 54.2% 0in /  0.0mm
04:19 53.8 °F /  12.1 °C 37.6 °F /  3.1 °C 30.2in /  1021.3hPa NE 4.3mph /  6.9km/h 4.7mph /  7.6km/h 54.1% 0in /  0.0mm
04:24 53.2 °F /  11.8 °C 37.6 °F /  3.1 °C 30.2in /  1021.5hPa SO 3.1mph /  5km/h 4.7mph /  7.6km/h 55.3% 0in /  0.0mm
04:29 52.9 °F /  11.6 °C 37.6 °F /  3.1 °C 30.2in /  1021.5hPa SSE 3mph /  4.9km/h 5.9mph /  9.5km/h 56% 0in /  0.0mm
04:34 52.3 °F /  11.3 °C 37.6 °F /  3.1 °C 30.2in /  1021.5hPa SE 2.9mph /  4.7km/h 5.2mph /  8.4km/h 56.9% 0in /  0.0mm
04:39 52.2 °F /  11.2 °C 37.4 °F /  3 °C 30.2in /  1021.5hPa SSO 3mph /  4.8km/h 7.4mph /  11.9km/h 57% 0in /  0.0mm
04:44 52.3 °F /  11.3 °C 37.2 °F /  2.9 °C 30.2in /  1021.4hPa SO 3.1mph /  5km/h 9.7mph /  15.6km/h 56.3% 0in /  0.0mm
04:49 52.2 °F /  11.2 °C 37.2 °F /  2.9 °C 30.2in /  1021.4hPa NE 3.4mph /  5.5km/h 6.9mph /  11.1km/h 56.9% 0in /  0.0mm
04:54 51.6 °F /  10.9 °C 37.2 °F /  2.9 °C 30.2in /  1021.5hPa North 4.3mph /  6.9km/h 5.9mph /  9.5km/h 57.8% 0in /  0.0mm
04:59 51.4 °F /  10.8 °C 37.2 °F /  2.9 °C 30.2in /  1021.5hPa OSO 3.9mph /  6.2km/h 5.2mph /  8.4km/h 58% 0in /  0.0mm
05:04 51.6 °F /  10.9 °C 37.2 °F /  2.9 °C 30.2in /  1021.5hPa SE 2.9mph /  4.7km/h 4.6mph /  7.4km/h 58% 0in /  0.0mm
05:09 51.6 °F /  10.9 °C 37.2 °F /  2.9 °C 30.2in /  1021.5hPa ENE 2.9mph /  4.7km/h 5.2mph /  8.4km/h 57.9% 0in /  0.0mm
05:14 52.2 °F /  11.2 °C 37 °F /  2.8 °C 30.2in /  1021.5hPa North 2.9mph /  4.7km/h 6.2mph /  10km/h 56.4% 0in /  0.0mm
05:19 52.7 °F /  11.5 °C 36.9 °F /  2.7 °C 30.2in /  1021.5hPa NO 3.1mph /  5km/h 11.5mph /  18.5km/h 54.9% 0in /  0.0mm
05:24 53.4 °F /  11.9 °C 36.7 °F /  2.6 °C 30.2in /  1021.5hPa ONO 3.6mph /  5.8km/h 9.2mph /  14.8km/h 53.1% 0in /  0.0mm
05:29 53.4 °F /  11.9 °C 36.7 °F /  2.6 °C 30.2in /  1021.5hPa NO 3.6mph /  5.8km/h 4.6mph /  7.4km/h 53% 0in /  0.0mm
05:34 53.2 °F /  11.8 °C 36.5 °F /  2.5 °C 30.2in /  1021.5hPa ONO 3.6mph /  5.8km/h 6.9mph /  11.1km/h 53% 0in /  0.0mm
05:39 53.8 °F /  12.1 °C 36.5 °F /  2.5 °C 30.2in /  1021.6hPa ONO 3.7mph /  6km/h 8.1mph /  13km/h 52% 0in /  0.0mm
05:44 54 °F /  12.2 °C 36.1 °F /  2.3 °C 30.2in /  1021.6hPa NO 4mph /  6.4km/h 4.6mph /  7.4km/h 51% 0in /  0.0mm
05:49 54 °F /  12.2 °C 36.1 °F /  2.3 °C 30.2in /  1021.6hPa NO 3.7mph /  6km/h 5.9mph /  9.5km/h 51% 0in /  0.0mm
05:54 54 °F /  12.2 °C 36.3 °F /  2.4 °C 30.2in /  1021.6hPa NO 3.1mph /  5km/h 9.2mph /  14.8km/h 51% 0in /  0.0mm
05:59 54 °F /  12.2 °C 36.3 °F /  2.4 °C 30.2in /  1021.6hPa ONO 3.8mph /  6.1km/h 8.5mph /  13.7km/h 51% 0in /  0.0mm
06:04 54 °F /  12.2 °C 36.1 °F /  2.3 °C 30.2in /  1021.6hPa ONO 5.4mph /  8.7km/h 13mph /  20.9km/h 51% 0in /  0.0mm
06:09 53.6 °F /  12 °C 36 °F /  2.2 °C 30.2in /  1021.6hPa ONO 5.9mph /  9.5km/h 14mph /  22.5km/h 51.2% 0in /  0.0mm
06:14 53.4 °F /  11.9 °C 36 °F /  2.2 °C 30.2in /  1021.4hPa ONO 7.4mph /  11.9km/h 15mph /  24.1km/h 51.4% 0in /  0.0mm
06:19 53.2 °F /  11.8 °C 36 °F /  2.2 °C 30.2in /  1021.4hPa ONO 7.5mph /  12km/h 11.5mph /  18.5km/h 52% 0in /  0.0mm
06:24 53.1 °F /  11.7 °C 36 °F /  2.2 °C 30.2in /  1021.6hPa ONO 7.6mph /  12.2km/h 17.5mph /  28.2km/h 52.2% 0in /  0.0mm
06:29 53.2 °F /  11.8 °C 36.1 °F /  2.3 °C 30.2in /  1021.6hPa ONO 7.8mph /  12.5km/h 14mph /  22.5km/h 52% 0in /  0.0mm
06:34 53.2 °F /  11.8 °C 36.1 °F /  2.3 °C 30.2in /  1021.6hPa ONO 8.1mph /  13km/h 13.8mph /  22.2km/h 52% 0in /  0.0mm
06:39 53.2 °F /  11.8 °C 36.1 °F /  2.3 °C 30.2in /  1021.8hPa ONO 8.2mph /  13.2km/h 12.3mph /  19.8km/h 52% 0in /  0.0mm
06:44 53.1 °F /  11.7 °C 36 °F /  2.2 °C 30.2in /  1021.8hPa ONO 8.5mph /  13.7km/h 14mph /  22.5km/h 52% 0in /  0.0mm
06:49 53.2 °F /  11.8 °C 36.1 °F /  2.3 °C 30.2in /  1021.8hPa ONO 8.8mph /  14.2km/h 19mph /  30.6km/h 51.9% 0in /  0.0mm
06:54 53.8 °F /  12.1 °C 36 °F /  2.2 °C 30.2in /  1021.8hPa ONO 9.7mph /  15.6km/h 20.8mph /  33.5km/h 50.7% 0in /  0.0mm
06:59 54.3 °F /  12.4 °C 36 °F /  2.2 °C 30.2in /  1021.7hPa ONO 10.6mph /  17km/h 17.5mph /  28.2km/h 50% 0in /  0.0mm
07:04 54.1 °F /  12.3 °C 36 °F /  2.2 °C 30.2in /  1021.7hPa ONO 12.5mph /  20.1km/h 19.6mph /  31.5km/h 50% 0in /  0.0mm
07:09 54.1 °F /  12.3 °C 36 °F /  2.2 °C 30.2in /  1021.9hPa ONO 12.1mph /  19.5km/h 17.3mph /  27.8km/h 50% 0in /  0.0mm
07:14 54.3 °F /  12.4 °C 36.1 °F /  2.3 °C 30.2in /  1021.9hPa ONO 11.2mph /  18km/h 13.8mph /  22.2km/h 50% 0in /  0.0mm
07:19 54.1 °F /  12.3 °C 36 °F /  2.2 °C 30.2in /  1021.9hPa ONO 10.4mph /  16.8km/h 15mph /  24.1km/h 50% 0in /  0.0mm
07:24 54.1 °F /  12.3 °C 36 °F /  2.2 °C 30.2in /  1022.1hPa ONO 8.5mph /  13.7km/h 12.7mph /  20.4km/h 50% 0in /  0.0mm
07:29 54.1 °F /  12.3 °C 36 °F /  2.2 °C 30.2in /  1022.1hPa Oeste 8.1mph /  13km/h 10.4mph /  16.7km/h 50% 0in /  0.0mm
07:34 54 °F /  12.2 °C 35.8 °F /  2.1 °C 30.2in /  1022.1hPa OSO 6.9mph /  11.1km/h 8.1mph /  13km/h 50% 0in /  0.0mm
07:39 53.6 °F /  12 °C 35.6 °F /  2 °C 30.2in /  1022.4hPa Sur 6.3mph /  10.2km/h 9.2mph /  14.8km/h 50.4% 0in /  0.0mm
07:44 52.9 °F /  11.6 °C 35.4 °F /  1.9 °C 30.2in /  1022.4hPa ESE 4.7mph /  7.6km/h 9.2mph /  14.8km/h 51.5% 0in /  0.0mm
07:49 52.3 °F /  11.3 °C 35.6 °F /  2 °C 30.2in /  1022.4hPa SSE 4.5mph /  7.3km/h 5.2mph /  8.4km/h 52.8% 0in /  0.0mm
07:54 52 °F /  11.1 °C 35.6 °F /  2 °C 30.2in /  1022.5hPa Sur 4mph /  6.4km/h 5.8mph /  9.3km/h 53.5% 0in /  0.0mm
07:59 52 °F /  11.1 °C 35.8 °F /  2.1 °C 30.2in /  1022.5hPa SO 3.7mph /  5.9km/h 5.9mph /  9.5km/h 54% 0in /  0.0mm
08:04 52.2 °F /  11.2 °C 35.6 °F /  2 °C 30.2in /  1022.5hPa Sur 2.9mph /  4.7km/h 5.8mph /  9.3km/h 53.3% 0in /  0.0mm
08:09 52.2 °F /  11.2 °C 35.4 °F /  1.9 °C 30.2in /  1022.7hPa SSE 3mph /  4.8km/h 5.8mph /  9.3km/h 53% 0in /  0.0mm
08:14 52.2 °F /  11.2 °C 35.6 °F /  2 °C 30.2in /  1022.7hPa SSE 3.1mph /  5km/h 5.2mph /  8.4km/h 53.1% 0in /  0.0mm
08:19 52.2 °F /  11.2 °C 36 °F /  2.2 °C 30.2in /  1022.7hPa SE 3.2mph /  5.2km/h 5.8mph /  9.3km/h 53.9% 0in /  0.0mm
08:24 52.2 °F /  11.2 °C 35.8 °F /  2.1 °C 30.2in /  1022.8hPa SSE 3.6mph /  5.8km/h 6.2mph /  10km/h 53.7% 0in /  0.0mm
08:29 52 °F /  11.1 °C 35.8 °F /  2.1 °C 30.2in /  1022.8hPa SSE 3.6mph /  5.8km/h 7.6mph /  12.2km/h 54% 0in /  0.0mm
08:34 52.2 °F /  11.2 °C 36 °F /  2.2 °C 30.2in /  1022.8hPa SSE 3.6mph /  5.8km/h 10.4mph /  16.7km/h 54% 0in /  0.0mm
08:39 52.7 °F /  11.5 °C 36.1 °F /  2.3 °C 30.2in /  1023.0hPa SSE 3.9mph /  6.2km/h 8.1mph /  13km/h 53.1% 0in /  0.0mm
08:44 53.2 °F /  11.8 °C 36.1 °F /  2.3 °C 30.2in /  1023.0hPa Sur 4.7mph /  7.6km/h 5.2mph /  8.4km/h 52.1% 0in /  0.0mm
08:49 53.2 °F /  11.8 °C 36.1 °F /  2.3 °C 30.2in /  1023.0hPa SSE 4.3mph /  6.9km/h 8.1mph /  13km/h 52% 0in /  0.0mm
08:54 53.2 °F /  11.8 °C 36.1 °F /  2.3 °C 30.2in /  1023.0hPa Sur 3.1mph /  5km/h 10mph /  16.1km/h 52% 0in /  0.0mm
08:59 53.2 °F /  11.8 °C 36.1 °F /  2.3 °C 30.2in /  1022.9hPa SSO 3.7mph /  6km/h 10.4mph /  16.7km/h 52% 0in /  0.0mm
09:04 53.2 °F /  11.8 °C 36.1 °F /  2.3 °C 30.2in /  1022.9hPa SSO 5.2mph /  8.4km/h 6.9mph /  11.1km/h 52% 0in /  0.0mm
09:09 53.2 °F /  11.8 °C 36.1 °F /  2.3 °C 30.2in /  1023.2hPa ONO 4.8mph /  7.7km/h 4.7mph /  7.6km/h 52% 0in /  0.0mm
09:14 53.2 °F /  11.8 °C 36.5 °F /  2.5 °C 30.2in /  1023.2hPa NO 3.6mph /  5.8km/h 4.6mph /  7.4km/h 52.9% 0in /  0.0mm
09:19 53.8 °F /  12.1 °C 36.5 °F /  2.5 °C 30.2in /  1023.2hPa OSO 3.2mph /  5.1km/h 4.6mph /  7.4km/h 52% 0in /  0.0mm
09:24 54.1 °F /  12.3 °C 36.5 °F /  2.5 °C 30.2in /  1023.3hPa Sur 2mph /  3.2km/h 5.9mph /  9.5km/h 51.2% 0in /  0.0mm
09:29 54.7 °F /  12.6 °C 36.7 °F /  2.6 °C 30.2in /  1023.3hPa SSO 2.4mph /  3.9km/h 7.4mph /  11.9km/h 50.6% 0in /  0.0mm
09:34 55 °F /  12.8 °C 36.7 °F /  2.6 °C 30.2in /  1023.3hPa ONO 3.6mph /  5.8km/h 6.9mph /  11.1km/h 49.9% 0in /  0.0mm
09:39 55 °F /  12.8 °C 36.5 °F /  2.5 °C 30.2in /  1023.4hPa SSO 3.7mph /  6km/h 6.9mph /  11.1km/h 49.5% 0in /  0.0mm
09:44 55.6 °F /  13.1 °C 36.7 °F /  2.6 °C 30.2in /  1023.4hPa Sur 4mph /  6.4km/h 5.8mph /  9.3km/h 49% 0in /  0.0mm
09:49 55.8 °F /  13.2 °C 36.7 °F /  2.6 °C 30.2in /  1023.4hPa NO 3.9mph /  6.3km/h 5.2mph /  8.4km/h 48.7% 0in /  0.0mm
09:54 55.9 °F /  13.3 °C 36.7 °F /  2.6 °C 30.2in /  1023.6hPa ONO 3.6mph /  5.8km/h 9.2mph /  14.8km/h 48.6% 0in /  0.0mm
09:59 55.9 °F /  13.3 °C 36.5 °F /  2.5 °C 30.2in /  1023.6hPa SO 3.9mph /  6.2km/h 5.8mph /  9.3km/h 48% 0in /  0.0mm
10:04 56.3 °F /  13.5 °C 36.7 °F /  2.6 °C 30.2in /  1023.6hPa SSO 4.3mph /  6.9km/h 8.7mph /  14km/h 47.7% 0in /  0.0mm
10:09 56.7 °F /  13.7 °C 36.3 °F /  2.4 °C 30.2in /  1023.6hPa OSO 4.2mph /  6.8km/h 9.2mph /  14.8km/h 46.3% 0in /  0.0mm
10:14 57.2 °F /  14 °C 36.5 °F /  2.5 °C 30.2in /  1023.5hPa SO 4mph /  6.4km/h 8.5mph /  13.7km/h 46% 0in /  0.0mm
10:19 57.6 °F /  14.2 °C 36.5 °F /  2.5 °C 30.2in /  1023.5hPa Oeste 4.3mph /  6.9km/h 11.5mph /  18.5km/h 45.1% 0in /  0.0mm
10:24 57.6 °F /  14.2 °C 36.7 °F /  2.6 °C 30.2in /  1023.5hPa Oeste 5.2mph /  8.4km/h 10.4mph /  16.7km/h 45.7% 0in /  0.0mm
10:29 57.6 °F /  14.2 °C 36.7 °F /  2.6 °C 30.2in /  1023.5hPa OSO 5.3mph /  8.5km/h 10.4mph /  16.7km/h 45.5% 0in /  0.0mm
10:34 57.7 °F /  14.3 °C 36.5 °F /  2.5 °C 30.2in /  1023.5hPa OSO 5.4mph /  8.7km/h 15.2mph /  24.5km/h 45% 0in /  0.0mm
10:39 57.9 °F /  14.4 °C 36.7 °F /  2.6 °C 30.2in /  1023.7hPa Oeste 5.7mph /  9.1km/h 11.5mph /  18.5km/h 45% 0in /  0.0mm
10:44 58.3 °F /  14.6 °C 37 °F /  2.8 °C 30.2in /  1023.7hPa Oeste 6.4mph /  10.3km/h 11.5mph /  18.5km/h 45% 0in /  0.0mm
10:49 58.5 °F /  14.7 °C 37 °F /  2.8 °C 30.2in /  1023.7hPa ONO 6.3mph /  10.2km/h 16.1mph /  25.9km/h 44.5% 0in /  0.0mm
10:54 58.6 °F /  14.8 °C 36.7 °F /  2.6 °C 30.2in /  1023.7hPa ONO 6.2mph /  10km/h 19mph /  30.6km/h 43.6% 0in /  0.0mm
10:59 59 °F /  15 °C 36.7 °F /  2.6 °C 30.2in /  1023.7hPa ONO 8.2mph /  13.2km/h 20.8mph /  33.5km/h 43.3% 0in /  0.0mm
11:04 59.2 °F /  15.1 °C 36.7 °F /  2.6 °C 30.2in /  1023.7hPa ONO 12.5mph /  20.1km/h 23.5mph /  37.8km/h 43% 0in /  0.0mm
11:09 59.4 °F /  15.2 °C 36.5 °F /  2.5 °C 30.2in /  1023.7hPa ONO 12.9mph /  20.8km/h 23.5mph /  37.8km/h 42.6% 0in /  0.0mm
11:14 59.4 °F /  15.2 °C 36.3 °F /  2.4 °C 30.2in /  1023.4hPa ONO 14mph /  22.5km/h 25.6mph /  41.2km/h 42.2% 0in /  0.0mm
11:19 59.5 °F /  15.3 °C 36.7 °F /  2.6 °C 30.2in /  1023.4hPa ONO 14.1mph /  22.7km/h 21.3mph /  34.3km/h 42.4% 0in /  0.0mm
11:24 59.5 °F /  15.3 °C 36.3 °F /  2.4 °C 30.2in /  1023.6hPa ONO 14.5mph /  23.3km/h 22.3mph /  35.9km/h 42% 0in /  0.0mm
11:29 59.7 °F /  15.4 °C 36.5 °F /  2.5 °C 30.2in /  1023.6hPa ONO 14.2mph /  22.9km/h 22.5mph /  36.2km/h 42% 0in /  0.0mm
11:34 59.7 °F /  15.4 °C 36.7 °F /  2.6 °C 30.2in /  1023.6hPa ONO 13.5mph /  21.7km/h 23mph /  37km/h 42% 0in /  0.0mm
11:39 60.1 °F /  15.6 °C 36.5 °F /  2.5 °C 30.2in /  1023.6hPa ONO 13.2mph /  21.3km/h 19.6mph /  31.5km/h 41.5% 0in /  0.0mm
11:44 60.3 °F /  15.7 °C 36.3 °F /  2.4 °C 30.2in /  1023.5hPa ONO 12.5mph /  20.1km/h 20.7mph /  33.3km/h 41% 0in /  0.0mm
11:49 60.3 °F /  15.7 °C 36.5 °F /  2.5 °C 30.2in /  1023.5hPa ONO 12.4mph /  20km/h 20.8mph /  33.5km/h 41.1% 0in /  0.0mm
11:54 60.3 °F /  15.7 °C 36.9 °F /  2.7 °C 30.2in /  1023.5hPa ONO 12.3mph /  19.8km/h 18.4mph /  29.6km/h 41.9% 0in /  0.0mm
11:59 60.4 °F /  15.8 °C 36.9 °F /  2.7 °C 30.2in /  1023.4hPa NO 11.6mph /  18.7km/h 17.3mph /  27.8km/h 41.6% 0in /  0.0mm
12:04 60.4 °F /  15.8 °C 36.7 °F /  2.6 °C 30.2in /  1023.4hPa ONO 10.2mph /  16.4km/h 18.5mph /  29.8km/h 41% 0in /  0.0mm
12:09 60.6 °F /  15.9 °C 36.9 °F /  2.7 °C 30.2in /  1023.4hPa ONO 10.5mph /  16.9km/h 19.6mph /  31.5km/h 41% 0in /  0.0mm
12:14 61 °F /  16.1 °C 36.7 °F /  2.6 °C 30.2in /  1023.1hPa ONO 11.4mph /  18.3km/h 19.6mph /  31.5km/h 40.3% 0in /  0.0mm
12:19 61.2 °F /  16.2 °C 36.7 °F /  2.6 °C 30.2in /  1023.1hPa ONO 11.4mph /  18.3km/h 18.4mph /  29.6km/h 40.3% 0in /  0.0mm
12:24 61.3 °F /  16.3 °C 36.7 °F /  2.6 °C 30.2in /  1023.1hPa ONO 11.2mph /  18km/h 18.4mph /  29.6km/h 40% 0in /  0.0mm
12:29 61.5 °F /  16.4 °C 36.7 °F /  2.6 °C 30.2in /  1023.0hPa ONO 11.1mph /  17.8km/h 14mph /  22.5km/h 39.5% 0in /  0.0mm
12:34 61.9 °F /  16.6 °C 36.9 °F /  2.7 °C 30.2in /  1023.0hPa Oeste 10.7mph /  17.2km/h 13.8mph /  22.2km/h 39.2% 0in /  0.0mm
12:39 62.2 °F /  16.8 °C 37 °F /  2.8 °C 30.2in /  1023.0hPa OSO 9.6mph /  15.5km/h 17.5mph /  28.2km/h 39% 0in /  0.0mm
12:44 62.4 °F /  16.9 °C 36.9 °F /  2.7 °C 30.2in /  1022.7hPa OSO 6.4mph /  10.3km/h 23mph /  37km/h 38.6% 0in /  0.0mm
12:49 62.2 °F /  16.8 °C 36.9 °F /  2.7 °C 30.2in /  1022.7hPa Oeste 7.6mph /  12.2km/h 15mph /  24.1km/h 38.9% 0in /  0.0mm
12:54 62.2 °F /  16.8 °C 37 °F /  2.8 °C 30.2in /  1022.7hPa Oeste 10.7mph /  17.2km/h 19mph /  30.6km/h 39% 0in /  0.0mm
12:59 62.4 °F /  16.9 °C 37.2 °F /  2.9 °C 30.2in /  1022.5hPa OSO 10.1mph /  16.2km/h 18.4mph /  29.6km/h 39% 0in /  0.0mm
13:04 62.6 °F /  17 °C 37.4 °F /  3 °C 30.2in /  1022.5hPa Oeste 8.7mph /  14km/h 19.7mph /  31.7km/h 39% 0in /  0.0mm
13:09 62.8 °F /  17.1 °C 37.4 °F /  3 °C 30.2in /  1022.5hPa Oeste 9.1mph /  14.6km/h 18.5mph /  29.8km/h 39% 0in /  0.0mm
13:14 62.8 °F /  17.1 °C 37.4 °F /  3 °C 30.2in /  1022.4hPa OSO 10mph /  16.1km/h 17.3mph /  27.8km/h 39% 0in /  0.0mm
13:19 63 °F /  17.2 °C 37.2 °F /  2.9 °C 30.2in /  1022.4hPa OSO 10mph /  16.1km/h 18.1mph /  29.1km/h 38.7% 0in /  0.0mm
13:24 63.1 °F /  17.3 °C 37 °F /  2.8 °C 30.2in /  1022.4hPa OSO 10mph /  16.1km/h 20.7mph /  33.3km/h 38% 0in /  0.0mm
13:29 63.1 °F /  17.3 °C 37 °F /  2.8 °C 30.2in /  1022.2hPa OSO 10.3mph /  16.6km/h 21.5mph /  34.6km/h 38% 0in /  0.0mm
13:34 63.1 °F /  17.3 °C 37 °F /  2.8 °C 30.2in /  1022.2hPa OSO 11.2mph /  18km/h 24.6mph /  39.6km/h 38% 0in /  0.0mm
13:39 63.1 °F /  17.3 °C 37.2 °F /  2.9 °C 30.2in /  1022.2hPa OSO 11.2mph /  18.1km/h 17.3mph /  27.8km/h 38% 0in /  0.0mm
13:44 63.5 °F /  17.5 °C 37.2 °F /  2.9 °C 30.2in /  1022.1hPa OSO 11.4mph /  18.3km/h 18.5mph /  29.8km/h 37.9% 0in /  0.0mm
13:49 63.9 °F /  17.7 °C 37 °F /  2.8 °C 30.2in /  1022.1hPa Oeste 11.1mph /  17.8km/h 20.8mph /  33.5km/h 37.1% 0in /  0.0mm
13:54 63.9 °F /  17.7 °C 37 °F /  2.8 °C 30.2in /  1022.1hPa Oeste 10.2mph /  16.4km/h 21.3mph /  34.3km/h 37% 0in /  0.0mm
13:59 63.9 °F /  17.7 °C 37 °F /  2.8 °C 30.2in /  1022.1hPa Oeste 10.2mph /  16.4km/h 18.4mph /  29.6km/h 37% 0in /  0.0mm
14:04 64.2 °F /  17.9 °C 37.4 °F /  3 °C 30.2in /  1022.1hPa OSO 10.2mph /  16.4km/h 12.7mph /  20.4km/h 37% 0in /  0.0mm
14:09 64.2 °F /  17.9 °C 36.9 °F /  2.7 °C 30.2in /  1022.1hPa OSO 9.7mph /  15.6km/h 16.8mph /  27km/h 36.3% 0in /  0.0mm
14:14 64.4 °F /  18 °C 36.9 °F /  2.7 °C 30.2in /  1021.9hPa OSO 8.5mph /  13.7km/h 17.3mph /  27.8km/h 36% 0in /  0.0mm
14:19 64.8 °F /  18.2 °C 37 °F /  2.8 °C 30.2in /  1021.9hPa Oeste 8.7mph /  14km/h 16.8mph /  27km/h 36% 0in /  0.0mm
14:24 64.6 °F /  18.1 °C 36.9 °F /  2.7 °C 30.2in /  1021.9hPa ONO 9.2mph /  14.8km/h 17.3mph /  27.8km/h 35.8% 0in /  0.0mm
14:29 64.6 °F /  18.1 °C 37 °F /  2.8 °C 30.2in /  1021.7hPa OSO 9.4mph /  15.1km/h 13.8mph /  22.2km/h 36% 0in /  0.0mm
14:34 64.8 °F /  18.2 °C 37.2 °F /  2.9 °C 30.2in /  1021.7hPa OSO 10mph /  16.1km/h 13.8mph /  22.2km/h 36% 0in /  0.0mm
14:39 64.9 °F /  18.3 °C 36.9 °F /  2.7 °C 30.2in /  1021.7hPa OSO 9.3mph /  15km/h 14.5mph /  23.3km/h 35.3% 0in /  0.0mm
14:44 65.1 °F /  18.4 °C 36.9 °F /  2.7 °C 30.2in /  1021.4hPa OSO 7.4mph /  11.9km/h 15.9mph /  25.6km/h 35% 0in /  0.0mm
14:49 65.1 °F /  18.4 °C 36.5 °F /  2.5 °C 30.2in /  1021.4hPa Oeste 7.9mph /  12.7km/h 16.3mph /  26.2km/h 34.5% 0in /  0.0mm
14:54 65.1 °F /  18.4 °C 36.7 °F /  2.6 °C 30.2in /  1021.4hPa OSO 9.2mph /  14.8km/h 16.1mph /  25.9km/h 34.8% 0in /  0.0mm
14:59 65.3 °F /  18.5 °C 36.3 °F /  2.4 °C 30.2in /  1021.3hPa OSO 8.9mph /  14.4km/h 17.3mph /  27.8km/h 34% 0in /  0.0mm
15:04 65.5 °F /  18.6 °C 36.3 °F /  2.4 °C 30.2in /  1021.3hPa OSO 8.5mph /  13.7km/h 17.3mph /  27.8km/h 34% 0in /  0.0mm
15:09 65.5 °F /  18.6 °C 36.5 °F /  2.5 °C 30.2in /  1021.3hPa OSO 8.7mph /  14km/h 13.8mph /  22.2km/h 34% 0in /  0.0mm
15:14 65.7 °F /  18.7 °C 36.5 °F /  2.5 °C 30.2in /  1021.3hPa OSO 9.2mph /  14.8km/h 17.5mph /  28.2km/h 34% 0in /  0.0mm
15:19 65.5 °F /  18.6 °C 36.5 °F /  2.5 °C 30.2in /  1021.3hPa OSO 9.1mph /  14.6km/h 17.3mph /  27.8km/h 34% 0in /  0.0mm
15:24 65.7 °F /  18.7 °C 36.5 °F /  2.5 °C 30.2in /  1021.3hPa OSO 8.7mph /  14km/h 17.3mph /  27.8km/h 34% 0in /  0.0mm
15:29 65.8 °F /  18.8 °C 36.7 °F /  2.6 °C 30.2in /  1021.2hPa Oeste 8.5mph /  13.7km/h 12.7mph /  20.4km/h 34% 0in /  0.0mm
15:34 65.8 °F /  18.8 °C 36.3 °F /  2.4 °C 30.2in /  1021.2hPa Oeste 8.1mph /  13km/h 17.3mph /  27.8km/h 33.5% 0in /  0.0mm
15:39 65.7 °F /  18.7 °C 36.5 °F /  2.5 °C 30.2in /  1021.3hPa Oeste 8.2mph /  13.2km/h 15mph /  24.1km/h 34% 0in /  0.0mm
15:44 65.7 °F /  18.7 °C 36.5 °F /  2.5 °C 30.2in /  1021.3hPa Oeste 8.5mph /  13.7km/h 15.2mph /  24.5km/h 33.9% 0in /  0.0mm
15:49 65.7 °F /  18.7 °C 36 °F /  2.2 °C 30.2in /  1021.3hPa OSO 8.4mph /  13.5km/h 14.5mph /  23.3km/h 33.3% 0in /  0.0mm
15:54 65.8 °F /  18.8 °C 36 °F /  2.2 °C 30.2in /  1021.3hPa OSO 8.1mph /  13km/h 15mph /  24.1km/h 33.1% 0in /  0.0mm
15:59 65.8 °F /  18.8 °C 36.1 °F /  2.3 °C 30.2in /  1021.3hPa Oeste 8.2mph /  13.2km/h 13.8mph /  22.2km/h 33.4% 0in /  0.0mm
16:04 65.7 °F /  18.7 °C 36.5 °F /  2.5 °C 30.2in /  1021.3hPa Oeste 8.5mph /  13.7km/h 11.5mph /  18.5km/h 33.9% 0in /  0.0mm
16:09 65.8 °F /  18.8 °C 36 °F /  2.2 °C 30.2in /  1021.3hPa OSO 7.9mph /  12.7km/h 14.5mph /  23.3km/h 33% 0in /  0.0mm
16:14 65.7 °F /  18.7 °C 35.8 °F /  2.1 °C 30.2in /  1021.3hPa Oeste 6.2mph /  10km/h 15mph /  24.1km/h 33% 0in /  0.0mm
16:19 65.7 °F /  18.7 °C 35.8 °F /  2.1 °C 30.2in /  1021.3hPa Oeste 6.7mph /  10.8km/h 13mph /  20.9km/h 33% 0in /  0.0mm
16:24 65.7 °F /  18.7 °C 35.8 °F /  2.1 °C 30.2in /  1021.4hPa Oeste 8.1mph /  13km/h 10.4mph /  16.7km/h 33% 0in /  0.0mm
16:29 65.7 °F /  18.7 °C 35.8 °F /  2.1 °C 30.2in /  1021.4hPa Oeste 7.6mph /  12.3km/h 11.5mph /  18.5km/h 33% 0in /  0.0mm
16:34 65.7 °F /  18.7 °C 35.8 °F /  2.1 °C 30.2in /  1021.4hPa Oeste 6.4mph /  10.3km/h 12.7mph /  20.4km/h 33% 0in /  0.0mm
16:39 65.7 °F /  18.7 °C 35.8 °F /  2.1 °C 30.2in /  1021.5hPa Oeste 6mph /  9.6km/h 6.9mph /  11.1km/h 33% 0in /  0.0mm
16:44 65.8 °F /  18.8 °C 36 °F /  2.2 °C 30.2in /  1021.5hPa OSO 4.7mph /  7.6km/h 6.9mph /  11.1km/h 33% 0in /  0.0mm
16:49 65.8 °F /  18.8 °C 36 °F /  2.2 °C 30.2in /  1021.5hPa SO 4.6mph /  7.4km/h 11.5mph /  18.5km/h 33% 0in /  0.0mm
16:54 65.8 °F /  18.8 °C 36 °F /  2.2 °C 30.2in /  1021.5hPa OSO 4.3mph /  6.9km/h 9.7mph /  15.6km/h 33% 0in /  0.0mm
16:59 65.7 °F /  18.7 °C 35.8 °F /  2.1 °C 30.2in /  1021.4hPa OSO 4.8mph /  7.7km/h 8.5mph /  13.7km/h 33% 0in /  0.0mm
17:04 65.7 °F /  18.7 °C 35.8 °F /  2.1 °C 30.2in /  1021.4hPa OSO 5.9mph /  9.5km/h 10.4mph /  16.7km/h 33% 0in /  0.0mm
17:09 65.7 °F /  18.7 °C 35.8 °F /  2.1 °C 30.2in /  1021.5hPa OSO 5.7mph /  9.2km/h 8.1mph /  13km/h 33% 0in /  0.0mm
17:14 65.7 °F /  18.7 °C 35.8 °F /  2.1 °C 30.2in /  1021.5hPa Oeste 5.2mph /  8.4km/h 8.1mph /  13km/h 33.2% 0in /  0.0mm
17:19 65.5 °F /  18.6 °C 36.3 °F /  2.4 °C 30.2in /  1021.5hPa Oeste 4.9mph /  7.9km/h 6.9mph /  11.1km/h 33.9% 0in /  0.0mm
17:24 65.1 °F /  18.4 °C 36 °F /  2.2 °C 30.2in /  1021.6hPa Oeste 4mph /  6.4km/h 9.2mph /  14.8km/h 34% 0in /  0.0mm
17:29 64.9 °F /  18.3 °C 36 °F /  2.2 °C 30.2in /  1021.6hPa Oeste 4.2mph /  6.8km/h 9.2mph /  14.8km/h 34% 0in /  0.0mm
17:34 64.8 °F /  18.2 °C 35.8 °F /  2.1 °C 30.2in /  1021.6hPa Oeste 4.7mph /  7.6km/h 5.8mph /  9.3km/h 34.2% 0in /  0.0mm
17:39 64.8 °F /  18.2 °C 36.3 °F /  2.4 °C 30.2in /  1022.0hPa OSO 4mph /  6.5km/h 5.2mph /  8.4km/h 34.8% 0in /  0.0mm
17:44 64.8 °F /  18.2 °C 36.3 °F /  2.4 °C 30.2in /  1022.0hPa NO 2.4mph /  3.9km/h 4.6mph /  7.4km/h 35% 0in /  0.0mm
17:49 64.4 °F /  18 °C 36.1 °F /  2.3 °C 30.2in /  1022.0hPa ONO 2.4mph /  3.9km/h 5.2mph /  8.4km/h 35% 0in /  0.0mm
17:54 64.2 °F /  17.9 °C 36 °F /  2.2 °C 30.2in /  1022.2hPa ONO 2.4mph /  3.9km/h 6.4mph /  10.3km/h 35% 0in /  0.0mm
17:59 64 °F /  17.8 °C 36.1 °F /  2.3 °C 30.2in /  1022.2hPa ONO 2.8mph /  4.5km/h 6.9mph /  11.1km/h 35.4% 0in /  0.0mm
18:04 63.7 °F /  17.6 °C 36.1 °F /  2.3 °C 30.2in /  1022.2hPa Oeste 3.6mph /  5.8km/h 6.2mph /  10km/h 36% 0in /  0.0mm
18:09 63.3 °F /  17.4 °C 36 °F /  2.2 °C 30.2in /  1022.3hPa Oeste 3.8mph /  6.1km/h 6.9mph /  11.1km/h 36% 0in /  0.0mm
18:14 63.1 °F /  17.3 °C 35.8 °F /  2.1 °C 30.2in /  1022.3hPa OSO 4.3mph /  6.9km/h 5.9mph /  9.5km/h 36% 0in /  0.0mm
18:19 63.1 °F /  17.3 °C 35.8 °F /  2.1 °C 30.2in /  1022.3hPa SO 4mph /  6.4km/h 6.9mph /  11.1km/h 36% 0in /  0.0mm
18:24 63.1 °F /  17.3 °C 35.8 °F /  2.1 °C 30.2in /  1022.3hPa Sur 3.1mph /  5km/h 6.2mph /  10km/h 36% 0in /  0.0mm
18:29 63.1 °F /  17.3 °C 35.8 °F /  2.1 °C 30.2in /  1022.2hPa SSE 3.4mph /  5.4km/h 6.9mph /  11.1km/h 36% 0in /  0.0mm
18:34 63.1 °F /  17.3 °C 35.8 °F /  2.1 °C 30.2in /  1022.2hPa Sur 4mph /  6.4km/h 8.1mph /  13km/h 36% 0in /  0.0mm
18:39 63.1 °F /  17.3 °C 35.8 °F /  2.1 °C 30.2in /  1022.4hPa Sur 4.1mph /  6.6km/h 8.1mph /  13km/h 36% 0in /  0.0mm
18:44 63.3 °F /  17.4 °C 35.8 °F /  2.1 °C 30.2in /  1022.4hPa SO 4.3mph /  6.9km/h 9.2mph /  14.8km/h 35.9% 0in /  0.0mm
18:49 63.3 °F /  17.4 °C 35.2 °F /  1.8 °C 30.2in /  1022.4hPa SSO 4.1mph /  6.6km/h 4.6mph /  7.4km/h 35% 0in /  0.0mm
18:54 63.3 °F /  17.4 °C 35.2 °F /  1.8 °C 30.2in /  1022.5hPa Oeste 3.6mph /  5.8km/h 9.2mph /  14.8km/h 35% 0in /  0.0mm
18:59 63.3 °F /  17.4 °C 35.2 °F /  1.8 °C 30.2in /  1022.5hPa ONO 3.6mph /  5.8km/h 8.1mph /  13km/h 35% 0in /  0.0mm
19:04 63.1 °F /  17.3 °C 35.1 °F /  1.7 °C 30.2in /  1022.5hPa OSO 3.6mph /  5.8km/h 9.2mph /  14.8km/h 35% 0in /  0.0mm
19:09 63.1 °F /  17.3 °C 34.9 °F /  1.6 °C 30.2in /  1022.5hPa Oeste 3.8mph /  6.1km/h 9.2mph /  14.8km/h 35% 0in /  0.0mm
19:14 63 °F /  17.2 °C 34.9 °F /  1.6 °C 30.2in /  1022.5hPa OSO 4.3mph /  6.9km/h 13.8mph /  22.2km/h 35% 0in /  0.0mm
19:19 63 °F /  17.2 °C 34.9 °F /  1.6 °C 30.2in /  1022.5hPa OSO 4.5mph /  7.3km/h 9.2mph /  14.8km/h 35% 0in /  0.0mm
19:24 63 °F /  17.2 °C 34.9 °F /  1.6 °C 30.2in /  1022.5hPa OSO 5.2mph /  8.4km/h 9.2mph /  14.8km/h 35% 0in /  0.0mm
19:29 63 °F /  17.2 °C 34.9 °F /  1.6 °C 30.2in /  1022.5hPa OSO 5mph /  8km/h 8.1mph /  13km/h 35% 0in /  0.0mm
19:34 63 °F /  17.2 °C 34.9 °F /  1.6 °C 30.2in /  1022.5hPa OSO 4.3mph /  6.9km/h 14mph /  22.5km/h 35% 0in /  0.0mm
19:39 62.8 °F /  17.1 °C 34.7 °F /  1.5 °C 30.2in /  1022.6hPa SO 4.5mph /  7.3km/h 10.2mph /  16.4km/h 35% 0in /  0.0mm
19:44 62.8 °F /  17.1 °C 34.7 °F /  1.5 °C 30.2in /  1022.6hPa OSO 5.2mph /  8.4km/h 16.1mph /  25.9km/h 35% 0in /  0.0mm
19:49 63 °F /  17.2 °C 34.9 °F /  1.6 °C 30.2in /  1022.6hPa Oeste 6.3mph /  10.2km/h 15mph /  24.1km/h 35% 0in /  0.0mm
19:54 62.8 °F /  17.1 °C 34.9 °F /  1.6 °C 30.2in /  1022.6hPa ONO 9.2mph /  14.8km/h 17.5mph /  28.2km/h 35.3% 0in /  0.0mm
19:59 62.4 °F /  16.9 °C 35.2 °F /  1.8 °C 30.2in /  1022.5hPa Oeste 9mph /  14.5km/h 17.5mph /  28.2km/h 36% 0in /  0.0mm
20:04 62.4 °F /  16.9 °C 35.1 °F /  1.7 °C 30.2in /  1022.5hPa Oeste 8.7mph /  14km/h 17.5mph /  28.2km/h 36% 0in /  0.0mm
20:09 62.2 °F /  16.8 °C 34.9 °F /  1.6 °C 30.2in /  1022.6hPa Oeste 8.5mph /  13.7km/h 12.7mph /  20.4km/h 36% 0in /  0.0mm
20:14 62.1 °F /  16.7 °C 35.2 °F /  1.8 °C 30.2in /  1022.6hPa SSO 8.1mph /  13km/h 9.2mph /  14.8km/h 36.7% 0in /  0.0mm
20:19 61.7 °F /  16.5 °C 35.2 °F /  1.8 °C 30.2in /  1022.6hPa SSE 7mph /  11.3km/h 7.4mph /  11.9km/h 37% 0in /  0.0mm
20:24 61.2 °F /  16.2 °C 35.2 °F /  1.8 °C 30.2in /  1022.8hPa Sur 4mph /  6.4km/h 6.9mph /  11.1km/h 37.7% 0in /  0.0mm
20:29 60.4 °F /  15.8 °C 35.1 °F /  1.7 °C 30.2in /  1022.8hPa Sur 4.2mph /  6.8km/h 15.2mph /  24.5km/h 38.7% 0in /  0.0mm
20:34 59.7 °F /  15.4 °C 34.7 °F /  1.5 °C 30.2in /  1022.8hPa Sur 4.7mph /  7.6km/h 15mph /  24.1km/h 39% 0in /  0.0mm
20:39 59.7 °F /  15.4 °C 34.7 °F /  1.5 °C 30.2in /  1022.8hPa SSO 5.4mph /  8.7km/h 9.2mph /  14.8km/h 39% 0in /  0.0mm
20:44 59.7 °F /  15.4 °C 34.7 °F /  1.5 °C 30.2in /  1022.7hPa SSO 7.4mph /  11.9km/h 8.1mph /  13km/h 39% 0in /  0.0mm
20:49 59.7 °F /  15.4 °C 34.7 °F /  1.5 °C 30.2in /  1022.7hPa OSO 6.8mph /  10.9km/h 8.1mph /  13km/h 39% 0in /  0.0mm
20:54 59.4 °F /  15.2 °C 34.9 °F /  1.6 °C 30.2in /  1022.7hPa OSO 5.2mph /  8.4km/h 7.4mph /  11.9km/h 39.8% 0in /  0.0mm
20:59 58.8 °F /  14.9 °C 34.5 °F /  1.4 °C 30.2in /  1022.4hPa SO 5mph /  8.1km/h 8.1mph /  13km/h 40% 0in /  0.0mm
21:04 58.8 °F /  14.9 °C 34.5 °F /  1.4 °C 30.2in /  1022.4hPa SO 4.7mph /  7.6km/h 8.1mph /  13km/h 40% 0in /  0.0mm
21:09 58.8 °F /  14.9 °C 34.5 °F /  1.4 °C 30.2in /  1022.4hPa SO 4.8mph /  7.8km/h 8.1mph /  13km/h 40% 0in /  0.0mm
21:14 58.8 °F /  14.9 °C 34.5 °F /  1.4 °C 30.2in /  1022.2hPa SO 5.2mph /  8.4km/h 8.1mph /  13km/h 40% 0in /  0.0mm
21:19 58.6 °F /  14.8 °C 34.5 °F /  1.4 °C 30.2in /  1022.2hPa OSO 5.2mph /  8.4km/h 7.4mph /  11.9km/h 40% 0in /  0.0mm
21:24 58.6 °F /  14.8 °C 34.3 °F /  1.3 °C 30.2in /  1022.2hPa OSO 5.2mph /  8.4km/h 6.9mph /  11.1km/h 40.1% 0in /  0.0mm
21:29 58.3 °F /  14.6 °C 34.7 °F /  1.5 °C 30.2in /  1022.2hPa OSO 5mph /  8km/h 8.1mph /  13km/h 41% 0in /  0.0mm
21:34 57.9 °F /  14.4 °C 34.5 °F /  1.4 °C 30.2in /  1022.2hPa OSO 4.3mph /  6.9km/h 6.9mph /  11.1km/h 41.4% 0in /  0.0mm
21:39 57.7 °F /  14.3 °C 34.7 °F /  1.5 °C 30.2in /  1022.2hPa OSO 4.2mph /  6.8km/h 5.8mph /  9.3km/h 42% 0in /  0.0mm
21:44 57.6 °F /  14.2 °C 34.5 °F /  1.4 °C 30.2in /  1022.2hPa Oeste 4mph /  6.4km/h 4.6mph /  7.4km/h 42% 0in /  0.0mm
21:49 57.6 °F /  14.2 °C 34.5 °F /  1.4 °C 30.2in /  1022.2hPa SSO 3.6mph /  5.8km/h 4.6mph /  7.4km/h 42% 0in /  0.0mm
Murcia-Puente Tocinos, Espa?a
Compliments of Weather Underground - 3 mb

La estación de MeteoMurcia.com, publica sus datos en los siguientes proyectos:

Weather Underground PWS IMURCIAP2 Meteoclimatic www.awekas.at

W3Counter
Web Analytics